sensor_id;sensor_type;location;lat;lon;timestamp;pressure;altitude;pressure_sealevel;temperature;humidity
20930;BME280;21895;47.072;15.132;2022-11-20T00:01:24;96226.00;;;4.83;76.16
20930;BME280;21895;47.072;15.132;2022-11-20T00:03:56;96224.00;;;4.70;76.62
20930;BME280;21895;47.072;15.132;2022-11-20T00:06:24;96216.00;;;4.70;76.91
20930;BME280;21895;47.072;15.132;2022-11-20T00:08:54;96211.00;;;4.73;76.83
20930;BME280;21895;47.072;15.132;2022-11-20T00:11:24;96213.00;;;4.80;76.54
20930;BME280;21895;47.072;15.132;2022-11-20T00:13:55;96204.00;;;4.84;76.34
20930;BME280;21895;47.072;15.132;2022-11-20T00:16:25;96217.00;;;4.81;76.62
20930;BME280;21895;47.072;15.132;2022-11-20T00:18:53;96222.00;;;4.82;76.89
20930;BME280;21895;47.072;15.132;2022-11-20T00:21:24;96237.00;;;4.80;76.86
20930;BME280;21895;47.072;15.132;2022-11-20T00:23:53;96230.00;;;4.84;76.55
20930;BME280;21895;47.072;15.132;2022-11-20T00:26:23;96236.00;;;4.83;76.80
20930;BME280;21895;47.072;15.132;2022-11-20T00:28:53;96236.00;;;4.90;76.38
20930;BME280;21895;47.072;15.132;2022-11-20T00:31:20;96243.00;;;4.85;76.38
20930;BME280;21895;47.072;15.132;2022-11-20T00:33:47;96253.00;;;4.95;76.02
20930;BME280;21895;47.072;15.132;2022-11-20T00:36:22;96246.00;;;4.82;76.45
20930;BME280;21895;47.072;15.132;2022-11-20T00:38:57;96253.00;;;4.75;76.97
20930;BME280;21895;47.072;15.132;2022-11-20T00:41:26;96247.00;;;4.83;76.76
20930;BME280;21895;47.072;15.132;2022-11-20T00:43:54;96237.00;;;4.83;76.86
20930;BME280;21895;47.072;15.132;2022-11-20T00:46:25;96237.00;;;4.83;76.70
20930;BME280;21895;47.072;15.132;2022-11-20T00:48:52;96237.00;;;4.80;76.53
20930;BME280;21895;47.072;15.132;2022-11-20T00:51:21;96239.00;;;4.76;76.85
20930;BME280;21895;47.072;15.132;2022-11-20T00:53:48;96253.00;;;4.86;76.18
20930;BME280;21895;47.072;15.132;2022-11-20T00:56:18;96258.00;;;4.86;76.43
20930;BME280;21895;47.072;15.132;2022-11-20T00:58:48;96259.00;;;4.84;76.69
20930;BME280;21895;47.072;15.132;2022-11-20T01:01:22;96258.00;;;4.86;76.91
20930;BME280;21895;47.072;15.132;2022-11-20T01:03:54;96256.00;;;4.73;76.87
20930;BME280;21895;47.072;15.132;2022-11-20T01:06:34;96263.00;;;4.74;76.85
20930;BME280;21895;47.072;15.132;2022-11-20T01:09:09;96266.00;;;4.70;77.28
20930;BME280;21895;47.072;15.132;2022-11-20T01:11:39;96277.00;;;4.65;77.34
20930;BME280;21895;47.072;15.132;2022-11-20T01:14:14;96281.00;;;4.69;77.31
20930;BME280;21895;47.072;15.132;2022-11-20T01:16:46;96279.00;;;4.74;76.94
20930;BME280;21895;47.072;15.132;2022-11-20T01:19:17;96279.00;;;4.75;76.95
20930;BME280;21895;47.072;15.132;2022-11-20T01:21:51;96276.00;;;4.73;76.88
20930;BME280;21895;47.072;15.132;2022-11-20T01:24:20;96275.00;;;4.69;76.87
20930;BME280;21895;47.072;15.132;2022-11-20T01:26:50;96272.00;;;4.74;76.56
20930;BME280;21895;47.072;15.132;2022-11-20T01:29:21;96266.00;;;4.67;76.81
20930;BME280;21895;47.072;15.132;2022-11-20T01:31:48;96271.00;;;4.70;76.58
20930;BME280;21895;47.072;15.132;2022-11-20T01:34:18;96271.00;;;4.58;76.95
20930;BME280;21895;47.072;15.132;2022-11-20T01:36:46;96270.00;;;4.61;77.48
20930;BME280;21895;47.072;15.132;2022-11-20T01:39:23;96268.00;;;4.65;77.72
20930;BME280;21895;47.072;15.132;2022-11-20T01:41:52;96270.00;;;4.68;77.66
20930;BME280;21895;47.072;15.132;2022-11-20T01:47:45;96267.00;;;4.62;77.84
20930;BME280;21895;47.072;15.132;2022-11-20T01:50:25;96263.00;;;4.71;77.91
20930;BME280;21895;47.072;15.132;2022-11-20T01:53:06;96269.00;;;4.76;77.59
20930;BME280;21895;47.072;15.132;2022-11-20T01:55:47;96267.00;;;4.74;77.74
20930;BME280;21895;47.072;15.132;2022-11-20T01:58:15;96276.00;;;4.78;78.00
20930;BME280;21895;47.072;15.132;2022-11-20T02:00:43;96272.00;;;4.87;77.74
20930;BME280;21895;47.072;15.132;2022-11-20T02:03:15;96256.00;;;4.85;77.34
20930;BME280;21895;47.072;15.132;2022-11-20T02:07:16;96268.00;;;4.74;77.89
20930;BME280;21895;47.072;15.132;2022-11-20T02:09:43;96263.00;;;4.83;77.67
20930;BME280;21895;47.072;15.132;2022-11-20T02:12:10;96260.00;;;4.87;77.39
20930;BME280;21895;47.072;15.132;2022-11-20T02:19:02;96266.00;;;4.73;77.99
20930;BME280;21895;47.072;15.132;2022-11-20T02:27:23;96269.00;;;4.78;77.57
20930;BME280;21895;47.072;15.132;2022-11-20T02:30:02;96263.00;;;4.78;77.49
20930;BME280;21895;47.072;15.132;2022-11-20T02:32:34;96262.00;;;4.74;77.38
20930;BME280;21895;47.072;15.132;2022-11-20T02:35:46;96263.00;;;4.76;77.47
20930;BME280;21895;47.072;15.132;2022-11-20T02:38:13;96257.00;;;4.86;77.22
20930;BME280;21895;47.072;15.132;2022-11-20T02:40:41;96251.00;;;4.87;76.91
20930;BME280;21895;47.072;15.132;2022-11-20T02:43:07;96256.00;;;4.77;77.30
20930;BME280;21895;47.072;15.132;2022-11-20T02:45:34;96254.00;;;4.85;77.17
20930;BME280;21895;47.072;15.132;2022-11-20T02:48:01;96254.00;;;4.82;76.98
20930;BME280;21895;47.072;15.132;2022-11-20T02:50:27;96249.00;;;4.78;77.11
20930;BME280;21895;47.072;15.132;2022-11-20T02:52:54;96237.00;;;4.76;77.78
20930;BME280;21895;47.072;15.132;2022-11-20T02:55:20;96239.00;;;4.78;77.58
20930;BME280;21895;47.072;15.132;2022-11-20T02:57:47;96240.00;;;4.80;77.72
20930;BME280;21895;47.072;15.132;2022-11-20T03:00:14;96236.00;;;4.81;77.78
20930;BME280;21895;47.072;15.132;2022-11-20T03:02:40;96233.00;;;4.92;77.17
20930;BME280;21895;47.072;15.132;2022-11-20T03:05:07;96229.00;;;4.76;77.47
20930;BME280;21895;47.072;15.132;2022-11-20T03:07:34;96221.00;;;4.75;77.60
20930;BME280;21895;47.072;15.132;2022-11-20T03:10:00;96232.00;;;4.92;77.22
20930;BME280;21895;47.072;15.132;2022-11-20T03:12:27;96233.00;;;4.76;77.48
20930;BME280;21895;47.072;15.132;2022-11-20T03:14:53;96233.00;;;4.79;77.63
20930;BME280;21895;47.072;15.132;2022-11-20T03:17:20;96226.00;;;4.86;77.41
20930;BME280;21895;47.072;15.132;2022-11-20T03:19:46;96242.00;;;4.58;78.01
20930;BME280;21895;47.072;15.132;2022-11-20T03:22:13;96240.00;;;4.52;78.53
20930;BME280;21895;47.072;15.132;2022-11-20T03:24:39;96239.00;;;4.56;78.61
20930;BME280;21895;47.072;15.132;2022-11-20T03:27:06;96236.00;;;4.59;78.36
20930;BME280;21895;47.072;15.132;2022-11-20T03:29:32;96221.00;;;4.65;78.21
20930;BME280;21895;47.072;15.132;2022-11-20T03:31:59;96227.00;;;4.70;78.57
20930;BME280;21895;47.072;15.132;2022-11-20T03:34:25;96222.00;;;4.74;78.62
20930;BME280;21895;47.072;15.132;2022-11-20T03:36:52;96222.00;;;4.74;78.53
20930;BME280;21895;47.072;15.132;2022-11-20T03:39:18;96222.00;;;4.80;78.24
20930;BME280;21895;47.072;15.132;2022-11-20T03:41:45;96225.00;;;4.77;78.31
20930;BME280;21895;47.072;15.132;2022-11-20T03:44:12;96232.00;;;4.78;78.32
20930;BME280;21895;47.072;15.132;2022-11-20T03:46:38;96229.00;;;4.78;78.32
20930;BME280;21895;47.072;15.132;2022-11-20T03:49:05;96226.00;;;5.01;77.50
20930;BME280;21895;47.072;15.132;2022-11-20T03:51:35;96225.00;;;4.85;78.24
20930;BME280;21895;47.072;15.132;2022-11-20T03:54:07;96224.00;;;4.82;78.47
20930;BME280;21895;47.072;15.132;2022-11-20T03:56:37;96226.00;;;4.86;78.09
20930;BME280;21895;47.072;15.132;2022-11-20T03:59:06;96229.00;;;4.82;78.02
20930;BME280;21895;47.072;15.132;2022-11-20T04:01:35;96224.00;;;4.73;78.15
20930;BME280;21895;47.072;15.132;2022-11-20T04:04:04;96221.00;;;4.75;78.38
20930;BME280;21895;47.072;15.132;2022-11-20T04:06:37;96215.00;;;4.74;78.46
20930;BME280;21895;47.072;15.132;2022-11-20T04:09:05;96215.00;;;4.78;78.63
20930;BME280;21895;47.072;15.132;2022-11-20T04:11:34;96208.00;;;4.78;78.81
20930;BME280;21895;47.072;15.132;2022-11-20T04:14:04;96206.00;;;4.75;78.74
20930;BME280;21895;47.072;15.132;2022-11-20T04:16:35;96205.00;;;4.80;78.74
20930;BME280;21895;47.072;15.132;2022-11-20T04:19:05;96199.00;;;4.83;78.50
20930;BME280;21895;47.072;15.132;2022-11-20T04:21:32;96205.00;;;4.88;77.96
20930;BME280;21895;47.072;15.132;2022-11-20T04:23:58;96204.00;;;4.86;77.34
20930;BME280;21895;47.072;15.132;2022-11-20T04:26:28;96202.00;;;4.73;78.22
20930;BME280;21895;47.072;15.132;2022-11-20T04:28:55;96202.00;;;4.70;78.36
20930;BME280;21895;47.072;15.132;2022-11-20T04:31:26;96204.00;;;4.59;78.95
20930;BME280;21895;47.072;15.132;2022-11-20T04:33:53;96207.00;;;4.54;79.30
20930;BME280;21895;47.072;15.132;2022-11-20T04:36:25;96209.00;;;4.61;79.36
20930;BME280;21895;47.072;15.132;2022-11-20T04:38:54;96202.00;;;4.58;79.02
20930;BME280;21895;47.072;15.132;2022-11-20T04:41:26;96200.00;;;4.55;78.61
20930;BME280;21895;47.072;15.132;2022-11-20T04:43:57;96186.00;;;4.43;78.97
20930;BME280;21895;47.072;15.132;2022-11-20T04:46:27;96183.00;;;4.39;79.37
20930;BME280;21895;47.072;15.132;2022-11-20T04:48:53;96178.00;;;4.38;79.45
20930;BME280;21895;47.072;15.132;2022-11-20T04:51:20;96178.00;;;4.31;79.81
20930;BME280;21895;47.072;15.132;2022-11-20T04:53:46;96174.00;;;4.42;79.33
20930;BME280;21895;47.072;15.132;2022-11-20T04:56:14;96171.00;;;4.35;79.72
20930;BME280;21895;47.072;15.132;2022-11-20T04:58:41;96172.00;;;4.62;78.86
20930;BME280;21895;47.072;15.132;2022-11-20T05:01:20;96174.00;;;4.48;79.49
20930;BME280;21895;47.072;15.132;2022-11-20T05:03:49;96181.00;;;4.56;78.78
20930;BME280;21895;47.072;15.132;2022-11-20T05:06:19;96176.00;;;4.48;78.94
20930;BME280;21895;47.072;15.132;2022-11-20T05:08:46;96164.00;;;4.62;78.52
20930;BME280;21895;47.072;15.132;2022-11-20T05:11:17;96169.00;;;4.55;78.33
20930;BME280;21895;47.072;15.132;2022-11-20T05:13:44;96174.00;;;4.58;78.41
20930;BME280;21895;47.072;15.132;2022-11-20T05:16:15;96167.00;;;4.66;77.99
20930;BME280;21895;47.072;15.132;2022-11-20T05:18:42;96171.00;;;4.75;77.50
20930;BME280;21895;47.072;15.132;2022-11-20T05:21:10;96168.00;;;4.68;77.48
20930;BME280;21895;47.072;15.132;2022-11-20T05:23:38;96170.00;;;4.46;78.41
20930;BME280;21895;47.072;15.132;2022-11-20T05:26:07;96174.00;;;4.52;78.41
20930;BME280;21895;47.072;15.132;2022-11-20T05:28:34;96178.00;;;4.38;78.61
20930;BME280;21895;47.072;15.132;2022-11-20T05:31:09;96175.00;;;4.25;79.45
20930;BME280;21895;47.072;15.132;2022-11-20T05:33:39;96174.00;;;4.44;79.39
20930;BME280;21895;47.072;15.132;2022-11-20T05:36:06;96180.00;;;4.56;79.46
20930;BME280;21895;47.072;15.132;2022-11-20T05:38:33;96172.00;;;4.52;79.40
20930;BME280;21895;47.072;15.132;2022-11-20T05:41:09;96180.00;;;4.66;79.00
20930;BME280;21895;47.072;15.132;2022-11-20T05:43:38;96174.00;;;4.59;78.31
20930;BME280;21895;47.072;15.132;2022-11-20T05:46:07;96180.00;;;4.57;78.34
20930;BME280;21895;47.072;15.132;2022-11-20T05:48:36;96172.00;;;4.49;78.65
20930;BME280;21895;47.072;15.132;2022-11-20T05:51:05;96180.00;;;4.53;78.85
20930;BME280;21895;47.072;15.132;2022-11-20T05:53:34;96180.00;;;4.41;79.20
20930;BME280;21895;47.072;15.132;2022-11-20T05:56:11;96186.00;;;4.48;79.06
20930;BME280;21895;47.072;15.132;2022-11-20T05:58:38;96190.00;;;4.58;78.34
20930;BME280;21895;47.072;15.132;2022-11-20T06:01:16;96192.00;;;4.55;78.44
20930;BME280;21895;47.072;15.132;2022-11-20T06:03:44;96188.00;;;4.54;78.52
20930;BME280;21895;47.072;15.132;2022-11-20T06:06:15;96184.00;;;4.55;78.58
20930;BME280;21895;47.072;15.132;2022-11-20T06:08:42;96189.00;;;4.59;78.62
20930;BME280;21895;47.072;15.132;2022-11-20T06:11:10;96180.00;;;4.62;78.79
20930;BME280;21895;47.072;15.132;2022-11-20T06:13:38;96192.00;;;4.65;78.80
20930;BME280;21895;47.072;15.132;2022-11-20T06:16:10;96194.00;;;4.56;78.76
20930;BME280;21895;47.072;15.132;2022-11-20T06:18:37;96189.00;;;4.68;78.82
20930;BME280;21895;47.072;15.132;2022-11-20T06:21:16;96201.00;;;4.72;78.67
20930;BME280;21895;47.072;15.132;2022-11-20T06:23:43;96195.00;;;4.78;78.63
20930;BME280;21895;47.072;15.132;2022-11-20T06:26:15;96203.00;;;4.73;78.69
20930;BME280;21895;47.072;15.132;2022-11-20T06:28:42;96209.00;;;4.74;78.55
20930;BME280;21895;47.072;15.132;2022-11-20T06:31:12;96208.00;;;4.73;78.71
20930;BME280;21895;47.072;15.132;2022-11-20T06:33:40;96212.00;;;4.86;77.41
20930;BME280;21895;47.072;15.132;2022-11-20T06:36:07;96205.00;;;4.73;77.99
20930;BME280;21895;47.072;15.132;2022-11-20T06:38:38;96212.00;;;4.74;78.17
20930;BME280;21895;47.072;15.132;2022-11-20T06:41:12;96212.00;;;4.79;78.17
20930;BME280;21895;47.072;15.132;2022-11-20T06:43:39;96216.00;;;4.72;78.19
20930;BME280;21895;47.072;15.132;2022-11-20T06:46:05;96220.00;;;4.76;78.35
20930;BME280;21895;47.072;15.132;2022-11-20T06:48:32;96230.00;;;4.79;78.58
20930;BME280;21895;47.072;15.132;2022-11-20T06:50:59;96236.00;;;4.79;78.19
20930;BME280;21895;47.072;15.132;2022-11-20T06:53:25;96229.00;;;4.92;78.04
20930;BME280;21895;47.072;15.132;2022-11-20T06:55:55;96229.00;;;5.14;77.62
20930;BME280;21895;47.072;15.132;2022-11-20T06:58:22;96244.00;;;5.07;77.42
20930;BME280;21895;47.072;15.132;2022-11-20T07:00:49;96245.00;;;5.03;77.22
20930;BME280;21895;47.072;15.132;2022-11-20T07:03:16;96236.00;;;5.02;77.60
20930;BME280;21895;47.072;15.132;2022-11-20T07:05:42;96239.00;;;5.12;77.45
20930;BME280;21895;47.072;15.132;2022-11-20T07:08:08;96253.00;;;5.07;77.00
20930;BME280;21895;47.072;15.132;2022-11-20T07:10:35;96241.00;;;4.93;77.53
20930;BME280;21895;47.072;15.132;2022-11-20T07:13:02;96251.00;;;5.03;77.73
20930;BME280;21895;47.072;15.132;2022-11-20T07:15:29;96253.00;;;5.15;77.18
20930;BME280;21895;47.072;15.132;2022-11-20T07:17:58;96252.00;;;4.96;77.51
20930;BME280;21895;47.072;15.132;2022-11-20T07:20:25;96254.00;;;4.82;78.11
20930;BME280;21895;47.072;15.132;2022-11-20T07:22:58;96259.00;;;5.07;77.63
20930;BME280;21895;47.072;15.132;2022-11-20T07:25:27;96253.00;;;5.03;77.46
20930;BME280;21895;47.072;15.132;2022-11-20T07:28:00;96258.00;;;5.00;77.80
20930;BME280;21895;47.072;15.132;2022-11-20T07:30:28;96260.00;;;5.14;77.77
20930;BME280;21895;47.072;15.132;2022-11-20T07:32:56;96263.00;;;5.36;77.13
20930;BME280;21895;47.072;15.132;2022-11-20T07:35:24;96254.00;;;5.24;76.55
20930;BME280;21895;47.072;15.132;2022-11-20T07:37:50;96264.00;;;5.33;76.87
20930;BME280;21895;47.072;15.132;2022-11-20T07:40:18;96261.00;;;5.23;77.05
20930;BME280;21895;47.072;15.132;2022-11-20T07:42:52;96264.00;;;5.22;77.37
20930;BME280;21895;47.072;15.132;2022-11-20T07:45:21;96272.00;;;5.32;77.30
20930;BME280;21895;47.072;15.132;2022-11-20T07:47:48;96277.00;;;5.28;76.68
20930;BME280;21895;47.072;15.132;2022-11-20T07:50:16;96264.00;;;5.19;76.99
20930;BME280;21895;47.072;15.132;2022-11-20T07:52:42;96266.00;;;5.25;77.23
20930;BME280;21895;47.072;15.132;2022-11-20T07:55:10;96267.00;;;5.32;77.33
20930;BME280;21895;47.072;15.132;2022-11-20T07:57:37;96270.00;;;5.52;76.77
20930;BME280;21895;47.072;15.132;2022-11-20T08:00:06;96272.00;;;5.43;76.44
20930;BME280;21895;47.072;15.132;2022-11-20T08:02:40;96279.00;;;5.45;76.61
20930;BME280;21895;47.072;15.132;2022-11-20T08:05:09;96277.00;;;5.43;76.86
20930;BME280;21895;47.072;15.132;2022-11-20T08:07:40;96276.00;;;5.55;76.38
20930;BME280;21895;47.072;15.132;2022-11-20T08:10:09;96282.00;;;5.66;75.95
20930;BME280;21895;47.072;15.132;2022-11-20T08:12:43;96293.00;;;5.63;75.80
20930;BME280;21895;47.072;15.132;2022-11-20T08:15:28;96285.00;;;5.66;76.04
20930;BME280;21895;47.072;15.132;2022-11-20T08:18:07;96273.00;;;5.80;76.09
20930;BME280;21895;47.072;15.132;2022-11-20T08:20:56;96288.00;;;5.87;75.74
20930;BME280;21895;47.072;15.132;2022-11-20T08:23:23;96297.00;;;5.79;75.57
20930;BME280;21895;47.072;15.132;2022-11-20T08:25:50;96303.00;;;5.81;75.50
20930;BME280;21895;47.072;15.132;2022-11-20T08:28:17;96294.00;;;5.90;75.28
20930;BME280;21895;47.072;15.132;2022-11-20T08:30:48;96300.00;;;5.79;75.56
20930;BME280;21895;47.072;15.132;2022-11-20T08:33:18;96300.00;;;5.86;75.92
20930;BME280;21895;47.072;15.132;2022-11-20T08:35:44;96309.00;;;6.03;75.73
20930;BME280;21895;47.072;15.132;2022-11-20T08:38:11;96306.00;;;6.09;75.79
20930;BME280;21895;47.072;15.132;2022-11-20T08:40:37;96306.00;;;6.31;75.32
20930;BME280;21895;47.072;15.132;2022-11-20T08:43:04;96304.00;;;6.31;74.47
20930;BME280;21895;47.072;15.132;2022-11-20T08:45:30;96306.00;;;6.31;74.32
20930;BME280;21895;47.072;15.132;2022-11-20T08:48:02;96315.00;;;6.25;74.28
20930;BME280;21895;47.072;15.132;2022-11-20T08:50:29;96307.00;;;6.30;74.48
20930;BME280;21895;47.072;15.132;2022-11-20T08:53:05;96303.00;;;6.36;74.28
20930;BME280;21895;47.072;15.132;2022-11-20T08:55:32;96309.00;;;6.43;74.31
20930;BME280;21895;47.072;15.132;2022-11-20T08:58:03;96299.00;;;6.55;74.00
20930;BME280;21895;47.072;15.132;2022-11-20T09:00:29;96311.00;;;6.74;73.96
20930;BME280;21895;47.072;15.132;2022-11-20T09:02:56;96310.00;;;6.83;73.26
20930;BME280;21895;47.072;15.132;2022-11-20T09:05:23;96312.00;;;6.82;72.74
20930;BME280;21895;47.072;15.132;2022-11-20T09:07:50;96311.00;;;6.86;72.79
20930;BME280;21895;47.072;15.132;2022-11-20T09:10:16;96318.00;;;6.97;72.10
20930;BME280;21895;47.072;15.132;2022-11-20T09:12:50;96312.00;;;6.93;72.12
20930;BME280;21895;47.072;15.132;2022-11-20T09:15:18;96317.00;;;7.01;72.39
20930;BME280;21895;47.072;15.132;2022-11-20T09:17:55;96313.00;;;7.05;72.22
20930;BME280;21895;47.072;15.132;2022-11-20T09:20:22;96317.00;;;6.98;72.91
20930;BME280;21895;47.072;15.132;2022-11-20T09:22:49;96315.00;;;7.10;72.87
20930;BME280;21895;47.072;15.132;2022-11-20T09:25:16;96313.00;;;7.16;72.76
20930;BME280;21895;47.072;15.132;2022-11-20T09:27:42;96311.00;;;7.31;72.42
20930;BME280;21895;47.072;15.132;2022-11-20T09:30:11;96308.00;;;7.31;71.99
20930;BME280;21895;47.072;15.132;2022-11-20T09:32:42;96309.00;;;7.46;71.44
20930;BME280;21895;47.072;15.132;2022-11-20T09:35:09;96309.00;;;7.63;70.79
20930;BME280;21895;47.072;15.132;2022-11-20T09:37:36;96305.00;;;7.64;70.39
20930;BME280;21895;47.072;15.132;2022-11-20T09:40:03;96306.00;;;7.76;70.05
20930;BME280;21895;47.072;15.132;2022-11-20T09:44:19;96302.00;;;7.93;70.46
20930;BME280;21895;47.072;15.132;2022-11-20T09:47:06;96303.00;;;8.02;69.87
20930;BME280;21895;47.072;15.132;2022-11-20T09:50:23;96298.00;;;8.06;69.06
20930;BME280;21895;47.072;15.132;2022-11-20T09:55:30;96297.00;;;8.29;67.93
20930;BME280;21895;47.072;15.132;2022-11-20T09:57:59;96292.00;;;8.54;68.11
20930;BME280;21895;47.072;15.132;2022-11-20T10:00:28;96292.00;;;8.51;67.91
20930;BME280;21895;47.072;15.132;2022-11-20T10:04:09;96289.00;;;8.66;67.67
20930;BME280;21895;47.072;15.132;2022-11-20T10:06:56;96282.00;;;8.92;66.38
20930;BME280;21895;47.072;15.132;2022-11-20T10:09:57;96270.00;;;9.19;66.32
20930;BME280;21895;47.072;15.132;2022-11-20T10:15:30;96270.00;;;9.52;64.73
20930;BME280;21895;47.072;15.132;2022-11-20T10:22:25;96268.00;;;9.78;63.96
20930;BME280;21895;47.072;15.132;2022-11-20T10:25:19;96263.00;;;9.75;64.33
20930;BME280;21895;47.072;15.132;2022-11-20T10:29:29;96258.00;;;9.72;63.96
20930;BME280;21895;47.072;15.132;2022-11-20T10:32:30;96264.00;;;9.94;64.46
20930;BME280;21895;47.072;15.132;2022-11-20T10:35:14;96260.00;;;10.03;63.50
20930;BME280;21895;47.072;15.132;2022-11-20T10:37:53;96265.00;;;10.13;63.17
20930;BME280;21895;47.072;15.132;2022-11-20T10:41:29;96265.00;;;10.03;62.85
20930;BME280;21895;47.072;15.132;2022-11-20T10:44:05;96256.00;;;10.11;62.25
20930;BME280;21895;47.072;15.132;2022-11-20T10:46:43;96252.00;;;10.10;63.12
20930;BME280;21895;47.072;15.132;2022-11-20T10:49:17;96242.00;;;10.04;63.16
20930;BME280;21895;47.072;15.132;2022-11-20T10:56:50;96251.00;;;10.09;63.23
20930;BME280;21895;47.072;15.132;2022-11-20T11:01:19;96247.00;;;10.05;63.16
20930;BME280;21895;47.072;15.132;2022-11-20T11:03:51;96250.00;;;10.10;63.50
20930;BME280;21895;47.072;15.132;2022-11-20T11:06:52;96241.00;;;10.00;63.89
20930;BME280;21895;47.072;15.132;2022-11-20T11:09:34;96244.00;;;10.02;64.20
20930;BME280;21895;47.072;15.132;2022-11-20T11:12:10;96239.00;;;9.97;64.17
20930;BME280;21895;47.072;15.132;2022-11-20T11:14:49;96236.00;;;9.95;63.88
20930;BME280;21895;47.072;15.132;2022-11-20T11:17:33;96235.00;;;9.86;64.61
20930;BME280;21895;47.072;15.132;2022-11-20T11:20:17;96228.00;;;9.66;65.06
20930;BME280;21895;47.072;15.132;2022-11-20T11:23:02;96232.00;;;9.60;65.64
20930;BME280;21895;47.072;15.132;2022-11-20T11:25:36;96227.00;;;9.73;65.58
20930;BME280;21895;47.072;15.132;2022-11-20T11:28:26;96234.00;;;9.72;65.60
20930;BME280;21895;47.072;15.132;2022-11-20T11:30:54;96237.00;;;9.77;65.59
20930;BME280;21895;47.072;15.132;2022-11-20T11:33:27;96237.00;;;9.77;65.91
20930;BME280;21895;47.072;15.132;2022-11-20T11:36:01;96233.00;;;9.91;65.73
20930;BME280;21895;47.072;15.132;2022-11-20T11:38:41;96227.00;;;9.99;65.81
20930;BME280;21895;47.072;15.132;2022-11-20T11:41:23;96231.00;;;10.25;65.51
20930;BME280;21895;47.072;15.132;2022-11-20T11:44:14;96227.00;;;10.44;64.69
20930;BME280;21895;47.072;15.132;2022-11-20T11:47:00;96218.00;;;10.64;63.96
20930;BME280;21895;47.072;15.132;2022-11-20T11:49:28;96218.00;;;10.73;64.51
20930;BME280;21895;47.072;15.132;2022-11-20T11:52:19;96226.00;;;10.83;64.78
20930;BME280;21895;47.072;15.132;2022-11-20T11:54:57;96217.00;;;10.72;64.07
20930;BME280;21895;47.072;15.132;2022-11-20T11:59:28;96219.00;;;10.75;65.25
20930;BME280;21895;47.072;15.132;2022-11-20T12:02:31;96221.00;;;10.80;62.59
20930;BME280;21895;47.072;15.132;2022-11-20T12:05:28;96219.00;;;10.51;62.97
20930;BME280;21895;47.072;15.132;2022-11-20T12:08:22;96217.00;;;10.61;62.94
20930;BME280;21895;47.072;15.132;2022-11-20T12:11:11;96217.00;;;10.38;63.39
20930;BME280;21895;47.072;15.132;2022-11-20T12:14:35;96219.00;;;10.25;62.93
20930;BME280;21895;47.072;15.132;2022-11-20T12:17:03;96216.00;;;10.24;64.68
20930;BME280;21895;47.072;15.132;2022-11-20T12:19:34;96227.00;;;10.23;64.76
20930;BME280;21895;47.072;15.132;2022-11-20T12:22:37;96213.00;;;10.01;64.21
20930;BME280;21895;47.072;15.132;2022-11-20T12:25:42;96223.00;;;9.83;64.69
20930;BME280;21895;47.072;15.132;2022-11-20T12:30:28;96214.00;;;9.71;65.89
20930;BME280;21895;47.072;15.132;2022-11-20T12:37:02;96214.00;;;9.84;64.37
20930;BME280;21895;47.072;15.132;2022-11-20T12:39:41;96214.00;;;10.01;64.24
20930;BME280;21895;47.072;15.132;2022-11-20T12:49:41;96219.00;;;10.06;65.61
20930;BME280;21895;47.072;15.132;2022-11-20T12:58:44;96208.00;;;10.31;65.11
20930;BME280;21895;47.072;15.132;2022-11-20T13:01:51;96210.00;;;10.31;64.48
20930;BME280;21895;47.072;15.132;2022-11-20T13:06:30;96194.00;;;10.51;64.50
20930;BME280;21895;47.072;15.132;2022-11-20T13:08:56;96204.00;;;10.84;62.60
20930;BME280;21895;47.072;15.132;2022-11-20T13:11:47;96200.00;;;10.70;63.13
20930;BME280;21895;47.072;15.132;2022-11-20T13:15:34;96206.00;;;10.70;62.93
20930;BME280;21895;47.072;15.132;2022-11-20T13:18:07;96201.00;;;10.79;62.54
20930;BME280;21895;47.072;15.132;2022-11-20T13:20:36;96203.00;;;10.98;62.03
20930;BME280;21895;47.072;15.132;2022-11-20T13:23:07;96198.00;;;10.99;62.20
20930;BME280;21895;47.072;15.132;2022-11-20T13:25:39;96199.00;;;11.09;61.58
20930;BME280;21895;47.072;15.132;2022-11-20T13:28:29;96194.00;;;11.18;61.02
20930;BME280;21895;47.072;15.132;2022-11-20T13:30:57;96192.00;;;11.05;61.40
20930;BME280;21895;47.072;15.132;2022-11-20T13:33:37;96188.00;;;11.16;61.99
20930;BME280;21895;47.072;15.132;2022-11-20T13:36:19;96183.00;;;11.27;62.20
20930;BME280;21895;47.072;15.132;2022-11-20T13:38:52;96179.00;;;11.05;62.88
20930;BME280;21895;47.072;15.132;2022-11-20T13:42:00;96185.00;;;10.67;64.11
20930;BME280;21895;47.072;15.132;2022-11-20T13:44:38;96186.00;;;10.51;64.76
20930;BME280;21895;47.072;15.132;2022-11-20T13:47:25;96179.00;;;10.48;64.50
20930;BME280;21895;47.072;15.132;2022-11-20T13:49:54;96181.00;;;10.32;65.08
20930;BME280;21895;47.072;15.132;2022-11-20T13:54:20;96192.00;;;10.31;65.01
20930;BME280;21895;47.072;15.132;2022-11-20T13:57:17;96182.00;;;10.35;64.94
20930;BME280;21895;47.072;15.132;2022-11-20T14:00:18;96182.00;;;10.25;65.18
20930;BME280;21895;47.072;15.132;2022-11-20T14:05:52;96186.00;;;9.95;65.81
20930;BME280;21895;47.072;15.132;2022-11-20T14:08:44;96186.00;;;9.77;66.16
20930;BME280;21895;47.072;15.132;2022-11-20T14:11:26;96184.00;;;9.67;66.63
20930;BME280;21895;47.072;15.132;2022-11-20T14:14:17;96188.00;;;9.55;67.39
20930;BME280;21895;47.072;15.132;2022-11-20T14:16:45;96183.00;;;9.31;68.16
20930;BME280;21895;47.072;15.132;2022-11-20T14:19:28;96177.00;;;9.31;68.25
20930;BME280;21895;47.072;15.132;2022-11-20T14:22:18;96180.00;;;9.18;68.80
20930;BME280;21895;47.072;15.132;2022-11-20T14:24:46;96183.00;;;9.04;69.63
20930;BME280;21895;47.072;15.132;2022-11-20T14:27:20;96171.00;;;9.00;69.93
20930;BME280;21895;47.072;15.132;2022-11-20T14:29:49;96176.00;;;8.93;70.05
20930;BME280;21895;47.072;15.132;2022-11-20T14:32:19;96172.00;;;8.84;70.32
20930;BME280;21895;47.072;15.132;2022-11-20T14:34:50;96170.00;;;8.80;70.52